sensor_id;sensor_type;location;lat;lon;timestamp;P1;durP1;ratioP1;P2;durP2;ratioP2
5418;SDS011;2732;52.092;11.556;2023-04-21T00:02:51;13.83;;;10.30;;
5418;SDS011;2732;52.092;11.556;2023-04-21T00:07:52;15.53;;;9.20;;
5418;SDS011;2732;52.092;11.556;2023-04-21T00:12:52;10.73;;;9.13;;
5418;SDS011;2732;52.092;11.556;2023-04-21T00:17:53;15.20;;;8.90;;
5418;SDS011;2732;52.092;11.556;2023-04-21T00:22:55;10.37;;;8.20;;
5418;SDS011;2732;52.092;11.556;2023-04-21T00:27:56;13.13;;;9.00;;
5418;SDS011;2732;52.092;11.556;2023-04-21T00:32:57;17.60;;;8.80;;
5418;SDS011;2732;52.092;11.556;2023-04-21T00:37:58;13.97;;;9.10;;
5418;SDS011;2732;52.092;11.556;2023-04-21T00:42:58;13.40;;;9.33;;
5418;SDS011;2732;52.092;11.556;2023-04-21T00:47:59;15.97;;;9.37;;
5418;SDS011;2732;52.092;11.556;2023-04-21T00:52:59;12.83;;;8.20;;
5418;SDS011;2732;52.092;11.556;2023-04-21T00:58:01;12.17;;;9.57;;
5418;SDS011;2732;52.092;11.556;2023-04-21T01:03:02;14.00;;;8.30;;
5418;SDS011;2732;52.092;11.556;2023-04-21T01:08:05;12.00;;;8.80;;
5418;SDS011;2732;52.092;11.556;2023-04-21T01:13:06;13.23;;;9.17;;
5418;SDS011;2732;52.092;11.556;2023-04-21T01:18:06;12.30;;;8.57;;
5418;SDS011;2732;52.092;11.556;2023-04-21T01:23:07;10.03;;;8.10;;
5418;SDS011;2732;52.092;11.556;2023-04-21T01:28:07;17.20;;;8.77;;
5418;SDS011;2732;52.092;11.556;2023-04-21T01:33:08;12.77;;;8.70;;
5418;SDS011;2732;52.092;11.556;2023-04-21T01:38:09;9.43;;;7.23;;
5418;SDS011;2732;52.092;11.556;2023-04-21T01:43:10;16.87;;;8.10;;
5418;SDS011;2732;52.092;11.556;2023-04-21T01:48:11;16.17;;;7.10;;
5418;SDS011;2732;52.092;11.556;2023-04-21T01:53:12;16.27;;;7.57;;
5418;SDS011;2732;52.092;11.556;2023-04-21T01:58:13;21.47;;;8.77;;
5418;SDS011;2732;52.092;11.556;2023-04-21T02:03:13;11.63;;;7.70;;
5418;SDS011;2732;52.092;11.556;2023-04-21T02:08:15;18.77;;;8.30;;
5418;SDS011;2732;52.092;11.556;2023-04-21T02:13:16;11.13;;;6.10;;
5418;SDS011;2732;52.092;11.556;2023-04-21T02:18:17;16.63;;;7.50;;
5418;SDS011;2732;52.092;11.556;2023-04-21T02:23:19;22.93;;;7.23;;
5418;SDS011;2732;52.092;11.556;2023-04-21T02:28:19;16.80;;;7.33;;
5418;SDS011;2732;52.092;11.556;2023-04-21T02:33:20;14.70;;;8.20;;
5418;SDS011;2732;52.092;11.556;2023-04-21T02:38:20;12.10;;;7.00;;
5418;SDS011;2732;52.092;11.556;2023-04-21T02:43:21;15.20;;;7.30;;
5418;SDS011;2732;52.092;11.556;2023-04-21T02:48:21;15.63;;;7.40;;
5418;SDS011;2732;52.092;11.556;2023-04-21T02:53:22;19.93;;;7.87;;
5418;SDS011;2732;52.092;11.556;2023-04-21T02:58:23;13.27;;;6.83;;
5418;SDS011;2732;52.092;11.556;2023-04-21T03:03:24;10.67;;;6.73;;
5418;SDS011;2732;52.092;11.556;2023-04-21T03:08:24;20.73;;;7.70;;
5418;SDS011;2732;52.092;11.556;2023-04-21T03:13:25;13.80;;;7.87;;
5418;SDS011;2732;52.092;11.556;2023-04-21T03:18:26;18.30;;;9.47;;
5418;SDS011;2732;52.092;11.556;2023-04-21T03:23:27;11.40;;;8.30;;
5418;SDS011;2732;52.092;11.556;2023-04-21T03:28:27;19.27;;;7.63;;
5418;SDS011;2732;52.092;11.556;2023-04-21T03:33:28;21.87;;;7.93;;
5418;SDS011;2732;52.092;11.556;2023-04-21T03:38:29;14.70;;;8.50;;
5418;SDS011;2732;52.092;11.556;2023-04-21T03:43:29;18.30;;;8.07;;
5418;SDS011;2732;52.092;11.556;2023-04-21T03:48:30;14.17;;;7.10;;
5418;SDS011;2732;52.092;11.556;2023-04-21T03:53:31;11.73;;;7.40;;
5418;SDS011;2732;52.092;11.556;2023-04-21T03:58:31;9.50;;;7.80;;
5418;SDS011;2732;52.092;11.556;2023-04-21T04:03:32;14.50;;;7.03;;
5418;SDS011;2732;52.092;11.556;2023-04-21T04:08:33;11.70;;;7.70;;
5418;SDS011;2732;52.092;11.556;2023-04-21T04:13:34;18.97;;;7.90;;
5418;SDS011;2732;52.092;11.556;2023-04-21T04:18:37;10.53;;;7.00;;
5418;SDS011;2732;52.092;11.556;2023-04-21T04:23:38;17.20;;;6.97;;
5418;SDS011;2732;52.092;11.556;2023-04-21T04:28:38;21.20;;;8.30;;
5418;SDS011;2732;52.092;11.556;2023-04-21T04:33:39;22.30;;;7.70;;
5418;SDS011;2732;52.092;11.556;2023-04-21T04:38:41;10.97;;;8.90;;
5418;SDS011;2732;52.092;11.556;2023-04-21T04:43:42;14.13;;;8.13;;
5418;SDS011;2732;52.092;11.556;2023-04-21T04:48:42;11.93;;;7.07;;
5418;SDS011;2732;52.092;11.556;2023-04-21T04:53:43;14.10;;;7.67;;
5418;SDS011;2732;52.092;11.556;2023-04-21T04:58:44;19.63;;;8.70;;
5418;SDS011;2732;52.092;11.556;2023-04-21T05:03:47;18.30;;;8.77;;
5418;SDS011;2732;52.092;11.556;2023-04-21T05:08:47;23.70;;;9.53;;
5418;SDS011;2732;52.092;11.556;2023-04-21T05:13:48;25.40;;;9.80;;
5418;SDS011;2732;52.092;11.556;2023-04-21T05:18:49;13.67;;;9.07;;
5418;SDS011;2732;52.092;11.556;2023-04-21T05:23:53;15.80;;;9.27;;
5418;SDS011;2732;52.092;11.556;2023-04-21T05:29:00;17.27;;;8.60;;
5418;SDS011;2732;52.092;11.556;2023-04-21T05:34:01;13.20;;;9.03;;
5418;SDS011;2732;52.092;11.556;2023-04-21T05:39:01;13.03;;;10.30;;
5418;SDS011;2732;52.092;11.556;2023-04-21T05:44:02;11.57;;;9.60;;
5418;SDS011;2732;52.092;11.556;2023-04-21T05:49:02;15.17;;;8.80;;
5418;SDS011;2732;52.092;11.556;2023-04-21T05:54:03;18.80;;;10.07;;
5418;SDS011;2732;52.092;11.556;2023-04-21T05:59:05;14.30;;;9.30;;
5418;SDS011;2732;52.092;11.556;2023-04-21T06:04:05;14.83;;;9.73;;
5418;SDS011;2732;52.092;11.556;2023-04-21T06:09:06;15.50;;;9.70;;
5418;SDS011;2732;52.092;11.556;2023-04-21T06:14:07;16.53;;;9.47;;
5418;SDS011;2732;52.092;11.556;2023-04-21T06:19:07;20.50;;;9.03;;
5418;SDS011;2732;52.092;11.556;2023-04-21T06:24:08;17.20;;;9.63;;
5418;SDS011;2732;52.092;11.556;2023-04-21T06:29:08;21.50;;;8.50;;
5418;SDS011;2732;52.092;11.556;2023-04-21T06:34:09;19.60;;;10.30;;
5418;SDS011;2732;52.092;11.556;2023-04-21T06:39:10;17.87;;;9.63;;
5418;SDS011;2732;52.092;11.556;2023-04-21T06:44:10;20.10;;;10.67;;
5418;SDS011;2732;52.092;11.556;2023-04-21T06:49:13;14.70;;;9.70;;
5418;SDS011;2732;52.092;11.556;2023-04-21T06:54:13;12.83;;;9.63;;
5418;SDS011;2732;52.092;11.556;2023-04-21T06:59:14;16.20;;;10.23;;
5418;SDS011;2732;52.092;11.556;2023-04-21T07:04:15;23.43;;;10.23;;
5418;SDS011;2732;52.092;11.556;2023-04-21T07:09:15;21.20;;;9.73;;
5418;SDS011;2732;52.092;11.556;2023-04-21T07:14:16;14.27;;;10.23;;
5418;SDS011;2732;52.092;11.556;2023-04-21T07:19:17;17.97;;;10.60;;
5418;SDS011;2732;52.092;11.556;2023-04-21T07:24:18;14.10;;;10.57;;
5418;SDS011;2732;52.092;11.556;2023-04-21T07:29:18;16.07;;;10.20;;
5418;SDS011;2732;52.092;11.556;2023-04-21T07:34:19;17.07;;;10.03;;
5418;SDS011;2732;52.092;11.556;2023-04-21T07:39:19;21.53;;;9.60;;
5418;SDS011;2732;52.092;11.556;2023-04-21T07:44:20;12.50;;;9.60;;
5418;SDS011;2732;52.092;11.556;2023-04-21T07:49:21;18.30;;;9.67;;
5418;SDS011;2732;52.092;11.556;2023-04-21T07:54:21;13.87;;;9.47;;
5418;SDS011;2732;52.092;11.556;2023-04-21T07:59:22;13.00;;;8.43;;
5418;SDS011;2732;52.092;11.556;2023-04-21T08:04:23;15.30;;;8.60;;
5418;SDS011;2732;52.092;11.556;2023-04-21T08:09:23;9.30;;;7.53;;
5418;SDS011;2732;52.092;11.556;2023-04-21T08:14:25;12.57;;;8.37;;
5418;SDS011;2732;52.092;11.556;2023-04-21T08:19:26;12.63;;;7.80;;
5418;SDS011;2732;52.092;11.556;2023-04-21T08:24:27;11.27;;;6.60;;
5418;SDS011;2732;52.092;11.556;2023-04-21T08:29:28;14.07;;;7.57;;
5418;SDS011;2732;52.092;11.556;2023-04-21T08:34:28;13.43;;;7.10;;
5418;SDS011;2732;52.092;11.556;2023-04-21T08:39:29;12.30;;;7.27;;
5418;SDS011;2732;52.092;11.556;2023-04-21T08:44:30;14.23;;;8.50;;
5418;SDS011;2732;52.092;11.556;2023-04-21T08:49:30;12.03;;;7.20;;
5418;SDS011;2732;52.092;11.556;2023-04-21T08:54:33;11.73;;;7.37;;
5418;SDS011;2732;52.092;11.556;2023-04-21T08:59:37;12.27;;;6.73;;
5418;SDS011;2732;52.092;11.556;2023-04-21T09:09:01;9.10;;;5.90;;
5418;SDS011;2732;52.092;11.556;2023-04-21T09:14:04;17.37;;;6.50;;
5418;SDS011;2732;52.092;11.556;2023-04-21T09:19:12;17.60;;;6.50;;
5418;SDS011;2732;52.092;11.556;2023-04-21T09:24:15;11.20;;;6.40;;
5418;SDS011;2732;52.092;11.556;2023-04-21T09:29:16;12.87;;;5.23;;
5418;SDS011;2732;52.092;11.556;2023-04-21T09:34:21;13.30;;;6.13;;
5418;SDS011;2732;52.092;11.556;2023-04-21T09:39:25;14.10;;;5.83;;
5418;SDS011;2732;52.092;11.556;2023-04-21T09:44:29;14.53;;;5.63;;
5418;SDS011;2732;52.092;11.556;2023-04-21T09:49:30;11.37;;;6.10;;
5418;SDS011;2732;52.092;11.556;2023-04-21T09:54:35;10.67;;;5.00;;
5418;SDS011;2732;52.092;11.556;2023-04-21T09:59:47;9.30;;;5.67;;
5418;SDS011;2732;52.092;11.556;2023-04-21T10:05:11;11.30;;;5.70;;
5418;SDS011;2732;52.092;11.556;2023-04-21T10:10:15;8.47;;;5.67;;
5418;SDS011;2732;52.092;11.556;2023-04-21T10:15:39;10.40;;;5.73;;
5418;SDS011;2732;52.092;11.556;2023-04-21T10:26:22;10.30;;;5.33;;
5418;SDS011;2732;52.092;11.556;2023-04-21T10:31:30;8.20;;;4.23;;
5418;SDS011;2732;52.092;11.556;2023-04-21T10:36:34;5.73;;;3.93;;
5418;SDS011;2732;52.092;11.556;2023-04-21T10:41:44;5.30;;;4.60;;
5418;SDS011;2732;52.092;11.556;2023-04-21T10:46:46;7.30;;;4.13;;
5418;SDS011;2732;52.092;11.556;2023-04-21T10:56:58;4.93;;;4.43;;
5418;SDS011;2732;52.092;11.556;2023-04-21T11:02:13;9.93;;;4.53;;
5418;SDS011;2732;52.092;11.556;2023-04-21T11:07:19;5.33;;;4.07;;
5418;SDS011;2732;52.092;11.556;2023-04-21T11:12:25;9.27;;;4.07;;
5418;SDS011;2732;52.092;11.556;2023-04-21T11:17:32;6.57;;;4.43;;
5418;SDS011;2732;52.092;11.556;2023-04-21T11:22:33;10.00;;;4.00;;
5418;SDS011;2732;52.092;11.556;2023-04-21T11:27:36;6.00;;;3.50;;
5418;SDS011;2732;52.092;11.556;2023-04-21T11:32:37;3.50;;;3.20;;
5418;SDS011;2732;52.092;11.556;2023-04-21T11:37:37;4.10;;;3.70;;
5418;SDS011;2732;52.092;11.556;2023-04-21T11:42:38;17.43;;;4.30;;
5418;SDS011;2732;52.092;11.556;2023-04-21T11:47:39;6.17;;;4.50;;
5418;SDS011;2732;52.092;11.556;2023-04-21T11:52:40;9.23;;;3.80;;
5418;SDS011;2732;52.092;11.556;2023-04-21T11:57:42;5.23;;;3.73;;
5418;SDS011;2732;52.092;11.556;2023-04-21T12:02:43;8.90;;;3.90;;
5418;SDS011;2732;52.092;11.556;2023-04-21T12:07:44;12.10;;;4.13;;
5418;SDS011;2732;52.092;11.556;2023-04-21T12:12:47;6.90;;;4.67;;
5418;SDS011;2732;52.092;11.556;2023-04-21T12:17:49;7.63;;;3.67;;
5418;SDS011;2732;52.092;11.556;2023-04-21T12:22:51;7.43;;;4.73;;
5418;SDS011;2732;52.092;11.556;2023-04-21T12:27:57;8.93;;;4.30;;
5418;SDS011;2732;52.092;11.556;2023-04-21T12:32:59;8.40;;;4.17;;
5418;SDS011;2732;52.092;11.556;2023-04-21T12:38:00;4.50;;;3.93;;
5418;SDS011;2732;52.092;11.556;2023-04-21T12:43:00;5.13;;;3.97;;
5418;SDS011;2732;52.092;11.556;2023-04-21T12:48:01;6.27;;;3.37;;
5418;SDS011;2732;52.092;11.556;2023-04-21T12:53:03;9.33;;;4.13;;
5418;SDS011;2732;52.092;11.556;2023-04-21T12:58:04;5.77;;;4.00;;
5418;SDS011;2732;52.092;11.556;2023-04-21T13:03:05;4.30;;;4.00;;
5418;SDS011;2732;52.092;11.556;2023-04-21T13:08:05;10.20;;;3.83;;
5418;SDS011;2732;52.092;11.556;2023-04-21T13:13:06;5.20;;;4.03;;
5418;SDS011;2732;52.092;11.556;2023-04-21T13:18:06;7.40;;;3.80;;
5418;SDS011;2732;52.092;11.556;2023-04-21T13:23:07;6.60;;;4.20;;
5418;SDS011;2732;52.092;11.556;2023-04-21T13:28:07;4.23;;;3.67;;
5418;SDS011;2732;52.092;11.556;2023-04-21T13:33:08;3.77;;;3.47;;
5418;SDS011;2732;52.092;11.556;2023-04-21T13:38:10;7.07;;;4.47;;
5418;SDS011;2732;52.092;11.556;2023-04-21T13:43:11;4.67;;;3.90;;
5418;SDS011;2732;52.092;11.556;2023-04-21T13:48:11;11.30;;;3.70;;
5418;SDS011;2732;52.092;11.556;2023-04-21T13:53:12;3.20;;;2.90;;
5418;SDS011;2732;52.092;11.556;2023-04-21T13:58:15;4.23;;;3.83;;
5418;SDS011;2732;52.092;11.556;2023-04-21T14:03:16;10.50;;;4.47;;
5418;SDS011;2732;52.092;11.556;2023-04-21T14:08:18;5.00;;;4.50;;
5418;SDS011;2732;52.092;11.556;2023-04-21T14:13:19;6.40;;;4.90;;
5418;SDS011;2732;52.092;11.556;2023-04-21T14:18:20;11.63;;;4.10;;
5418;SDS011;2732;52.092;11.556;2023-04-21T14:23:20;5.97;;;3.87;;
5418;SDS011;2732;52.092;11.556;2023-04-21T14:28:21;8.40;;;3.90;;
5418;SDS011;2732;52.092;11.556;2023-04-21T14:33:22;6.60;;;4.93;;
5418;SDS011;2732;52.092;11.556;2023-04-21T14:38:22;4.50;;;3.83;;
5418;SDS011;2732;52.092;11.556;2023-04-21T14:43:24;6.37;;;3.53;;
5418;SDS011;2732;52.092;11.556;2023-04-21T14:48:25;7.70;;;4.10;;
5418;SDS011;2732;52.092;11.556;2023-04-21T14:53:26;9.30;;;4.20;;
5418;SDS011;2732;52.092;11.556;2023-04-21T14:58:26;11.03;;;4.27;;
5418;SDS011;2732;52.092;11.556;2023-04-21T15:03:27;8.70;;;4.40;;
5418;SDS011;2732;52.092;11.556;2023-04-21T15:08:27;6.90;;;4.50;;
5418;SDS011;2732;52.092;11.556;2023-04-21T15:13:28;5.40;;;4.50;;
5418;SDS011;2732;52.092;11.556;2023-04-21T15:18:29;9.53;;;3.93;;
5418;SDS011;2732;52.092;11.556;2023-04-21T15:23:29;5.63;;;4.40;;
5418;SDS011;2732;52.092;11.556;2023-04-21T15:28:32;5.13;;;4.13;;
5418;SDS011;2732;52.092;11.556;2023-04-21T15:33:34;4.23;;;3.93;;
5418;SDS011;2732;52.092;11.556;2023-04-21T15:38:35;4.43;;;3.93;;
5418;SDS011;2732;52.092;11.556;2023-04-21T15:43:35;13.43;;;3.67;;
5418;SDS011;2732;52.092;11.556;2023-04-21T15:48:36;10.07;;;4.27;;
5418;SDS011;2732;52.092;11.556;2023-04-21T15:53:39;4.53;;;4.10;;
5418;SDS011;2732;52.092;11.556;2023-04-21T15:58:46;6.00;;;3.97;;
5418;SDS011;2732;52.092;11.556;2023-04-21T16:03:46;5.63;;;3.73;;
5418;SDS011;2732;52.092;11.556;2023-04-21T16:08:47;7.60;;;4.20;;
5418;SDS011;2732;52.092;11.556;2023-04-21T16:13:48;5.60;;;3.70;;
5418;SDS011;2732;52.092;11.556;2023-04-21T16:18:50;5.40;;;4.50;;
5418;SDS011;2732;52.092;11.556;2023-04-21T16:23:51;7.60;;;4.43;;
5418;SDS011;2732;52.092;11.556;2023-04-21T16:28:51;12.73;;;4.00;;
5418;SDS011;2732;52.092;11.556;2023-04-21T16:33:54;5.90;;;4.20;;
5418;SDS011;2732;52.092;11.556;2023-04-21T16:38:58;7.67;;;4.47;;
5418;SDS011;2732;52.092;11.556;2023-04-21T16:43:59;8.60;;;4.30;;
5418;SDS011;2732;52.092;11.556;2023-04-21T16:49:00;10.00;;;3.43;;
5418;SDS011;2732;52.092;11.556;2023-04-21T16:54:00;8.43;;;4.43;;
5418;SDS011;2732;52.092;11.556;2023-04-21T16:59:01;6.83;;;4.40;;
5418;SDS011;2732;52.092;11.556;2023-04-21T17:04:02;10.53;;;4.53;;
5418;SDS011;2732;52.092;11.556;2023-04-21T17:09:03;7.07;;;4.17;;
5418;SDS011;2732;52.092;11.556;2023-04-21T17:14:03;4.90;;;4.00;;
5418;SDS011;2732;52.092;11.556;2023-04-21T17:19:04;9.67;;;4.17;;
5418;SDS011;2732;52.092;11.556;2023-04-21T17:24:05;6.90;;;4.50;;
5418;SDS011;2732;52.092;11.556;2023-04-21T17:29:06;4.87;;;4.37;;
5418;SDS011;2732;52.092;11.556;2023-04-21T17:34:10;7.00;;;4.10;;
5418;SDS011;2732;52.092;11.556;2023-04-21T17:39:10;9.20;;;4.37;;
5418;SDS011;2732;52.092;11.556;2023-04-21T17:44:11;7.90;;;4.13;;
5418;SDS011;2732;52.092;11.556;2023-04-21T17:49:12;5.47;;;4.63;;
5418;SDS011;2732;52.092;11.556;2023-04-21T17:54:12;5.63;;;4.43;;
5418;SDS011;2732;52.092;11.556;2023-04-21T17:59:13;9.40;;;4.77;;
5418;SDS011;2732;52.092;11.556;2023-04-21T18:04:15;10.70;;;4.77;;
5418;SDS011;2732;52.092;11.556;2023-04-21T18:09:20;8.37;;;4.93;;
5418;SDS011;2732;52.092;11.556;2023-04-21T18:14:21;6.40;;;4.47;;
5418;SDS011;2732;52.092;11.556;2023-04-21T18:19:21;13.60;;;5.17;;
5418;SDS011;2732;52.092;11.556;2023-04-21T18:24:22;8.20;;;5.10;;
5418;SDS011;2732;52.092;11.556;2023-04-21T18:29:22;7.33;;;4.50;;
5418;SDS011;2732;52.092;11.556;2023-04-21T18:34:23;8.50;;;5.40;;
5418;SDS011;2732;52.092;11.556;2023-04-21T18:39:24;7.80;;;5.20;;
5418;SDS011;2732;52.092;11.556;2023-04-21T18:44:25;7.50;;;5.43;;
5418;SDS011;2732;52.092;11.556;2023-04-21T18:49:25;7.33;;;5.00;;
5418;SDS011;2732;52.092;11.556;2023-04-21T18:54:26;8.53;;;4.37;;
5418;SDS011;2732;52.092;11.556;2023-04-21T18:59:27;6.63;;;4.90;;
5418;SDS011;2732;52.092;11.556;2023-04-21T19:04:28;15.23;;;5.70;;
5418;SDS011;2732;52.092;11.556;2023-04-21T19:09:29;8.40;;;5.40;;
5418;SDS011;2732;52.092;11.556;2023-04-21T19:14:30;8.00;;;6.37;;
5418;SDS011;2732;52.092;11.556;2023-04-21T19:19:30;10.00;;;6.03;;
5418;SDS011;2732;52.092;11.556;2023-04-21T19:24:31;10.30;;;5.80;;
5418;SDS011;2732;52.092;11.556;2023-04-21T19:29:32;8.30;;;7.00;;
5418;SDS011;2732;52.092;11.556;2023-04-21T19:34:35;10.90;;;6.60;;
5418;SDS011;2732;52.092;11.556;2023-04-21T19:39:36;8.93;;;6.00;;
5418;SDS011;2732;52.092;11.556;2023-04-21T19:44:40;11.47;;;6.30;;
5418;SDS011;2732;52.092;11.556;2023-04-21T19:49:41;11.27;;;5.57;;
5418;SDS011;2732;52.092;11.556;2023-04-21T19:54:41;12.40;;;5.17;;
5418;SDS011;2732;52.092;11.556;2023-04-21T19:59:42;11.10;;;5.30;;
5418;SDS011;2732;52.092;11.556;2023-04-21T20:04:42;10.83;;;6.00;;
5418;SDS011;2732;52.092;11.556;2023-04-21T20:09:43;10.57;;;5.40;;
5418;SDS011;2732;52.092;11.556;2023-04-21T20:14:44;8.40;;;5.80;;
5418;SDS011;2732;52.092;11.556;2023-04-21T20:19:44;8.03;;;5.80;;
5418;SDS011;2732;52.092;11.556;2023-04-21T20:24:45;9.40;;;6.80;;
5418;SDS011;2732;52.092;11.556;2023-04-21T20:29:46;11.03;;;6.70;;
5418;SDS011;2732;52.092;11.556;2023-04-21T20:34:47;7.73;;;6.00;;
5418;SDS011;2732;52.092;11.556;2023-04-21T20:39:48;9.57;;;6.13;;
5418;SDS011;2732;52.092;11.556;2023-04-21T20:44:48;9.10;;;6.03;;
5418;SDS011;2732;52.092;11.556;2023-04-21T20:49:50;14.60;;;6.47;;
5418;SDS011;2732;52.092;11.556;2023-04-21T20:54:50;8.33;;;5.70;;
5418;SDS011;2732;52.092;11.556;2023-04-21T20:59:51;8.73;;;6.80;;
5418;SDS011;2732;52.092;11.556;2023-04-21T21:04:52;10.97;;;7.07;;
5418;SDS011;2732;52.092;11.556;2023-04-21T21:09:52;10.60;;;6.40;;
5418;SDS011;2732;52.092;11.556;2023-04-21T21:14:53;8.73;;;6.97;;
5418;SDS011;2732;52.092;11.556;2023-04-21T21:19:53;10.83;;;6.97;;
5418;SDS011;2732;52.092;11.556;2023-04-21T21:24:54;7.23;;;6.53;;
5418;SDS011;2732;52.092;11.556;2023-04-21T21:29:55;8.80;;;6.47;;
5418;SDS011;2732;52.092;11.556;2023-04-21T21:34:56;8.13;;;6.30;;
5418;SDS011;2732;52.092;11.556;2023-04-21T21:39:57;11.60;;;6.53;;
5418;SDS011;2732;52.092;11.556;2023-04-21T21:44:58;7.73;;;6.87;;
5418;SDS011;2732;52.092;11.556;2023-04-21T21:49:59;6.30;;;5.70;;
5418;SDS011;2732;52.092;11.556;2023-04-21T21:55:00;9.90;;;6.90;;
5418;SDS011;2732;52.092;11.556;2023-04-21T22:00:01;11.60;;;7.17;;
5418;SDS011;2732;52.092;11.556;2023-04-21T22:05:06;10.80;;;7.80;;
5418;SDS011;2732;52.092;11.556;2023-04-21T22:10:09;9.63;;;6.33;;
5418;SDS011;2732;52.092;11.556;2023-04-21T22:15:10;8.30;;;7.40;;
5418;SDS011;2732;52.092;11.556;2023-04-21T22:20:11;10.50;;;6.20;;
5418;SDS011;2732;52.092;11.556;2023-04-21T22:25:12;17.63;;;7.20;;
5418;SDS011;2732;52.092;11.556;2023-04-21T22:30:12;19.43;;;7.07;;
5418;SDS011;2732;52.092;11.556;2023-04-21T22:35:13;17.20;;;6.80;;
5418;SDS011;2732;52.092;11.556;2023-04-21T22:40:13;8.43;;;6.43;;
5418;SDS011;2732;52.092;11.556;2023-04-21T22:45:14;9.70;;;6.60;;
5418;SDS011;2732;52.092;11.556;2023-04-21T22:50:15;11.00;;;6.20;;
5418;SDS011;2732;52.092;11.556;2023-04-21T22:55:16;7.20;;;6.30;;
5418;SDS011;2732;52.092;11.556;2023-04-21T23:00:18;16.43;;;6.80;;
5418;SDS011;2732;52.092;11.556;2023-04-21T23:05:19;9.77;;;7.50;;
5418;SDS011;2732;52.092;11.556;2023-04-21T23:10:20;8.00;;;6.43;;
5418;SDS011;2732;52.092;11.556;2023-04-21T23:15:21;12.40;;;7.47;;
5418;SDS011;2732;52.092;11.556;2023-04-21T23:20:22;8.57;;;7.00;;
5418;SDS011;2732;52.092;11.556;2023-04-21T23:25:22;12.93;;;8.57;;
5418;SDS011;2732;52.092;11.556;2023-04-21T23:30:23;8.87;;;7.97;;
5418;SDS011;2732;52.092;11.556;2023-04-21T23:35:23;8.80;;;6.67;;
5418;SDS011;2732;52.092;11.556;2023-04-21T23:40:24;8.60;;;6.43;;
5418;SDS011;2732;52.092;11.556;2023-04-21T23:45:25;10.10;;;7.50;;
5418;SDS011;2732;52.092;11.556;2023-04-21T23:50:25;8.53;;;7.57;;
5418;SDS011;2732;52.092;11.556;2023-04-21T23:55:26;12.03;;;7.70;;
